| time (UTC) | temp F | wind direction | speed MPH | gust MPH | rain 1hr in | rain 24hr in | rain mn in | humidity % | barometer mb |
| 20260509223429 | 54 | 294 | 0.0 | 0.0 | 0.00 | 0.44 | 0.44 | 83 | 1007.6 |
| 20260509220421 | 54 | 199 | 0.0 | 0.0 | 0.02 | 0.44 | 0.44 | 84 | 1007.9 |
| 20260509215424 | 54 | 184 | 0.0 | 0.0 | 0.02 | 0.44 | 0.44 | 84 | 1008.0 |
| 20260509213408 | 54 | 184 | 0.0 | 0.0 | 0.03 | 0.44 | 0.44 | 84 | 1008.0 |
| 20260509212433 | 54 | 229 | 0.0 | 0.0 | 0.03 | 0.43 | 0.43 | 84 | 1008.2 |
| 20260509211407 | 54 | 300 | 0.0 | 0.0 | 0.03 | 0.42 | 0.42 | 83 | 1008.1 |
| 20260509210408 | 54 | 177 | 0.0 | 0.0 | 0.03 | 0.42 | 0.42 | 83 | 1008.1 |
| 20260509205354 | 53 | 177 | 0.0 | 0.0 | 0.04 | 0.42 | 0.42 | 83 | 1007.9 |
| 20260509204417 | 53 | 177 | 0.0 | 0.0 | 0.04 | 0.42 | 0.42 | 84 | 1008.1 |
| 20260509203405 | 53 | 142 | 0.0 | 0.0 | 0.04 | 0.41 | 0.41 | 84 | 1008.4 |
| 20260509202402 | 53 | 305 | 0.0 | 0.0 | 0.04 | 0.40 | 0.40 | 84 | 1008.5 |
| 20260509201345 | 53 | 316 | 0.0 | 0.0 | 0.04 | 0.39 | 0.39 | 84 | 1008.7 |
| 20260509200353 | 53 | 150 | 0.0 | 0.0 | 0.06 | 0.39 | 0.39 | 85 | 1008.9 |
| 20260509195342 | 53 | 307 | 0.0 | 0.0 | 0.05 | 0.38 | 0.38 | 85 | 1008.9 |
| 20260509194355 | 53 | 307 | 0.0 | 0.0 | 0.07 | 0.38 | 0.38 | 85 | 1008.9 |
| 20260509193358 | 53 | 215 | 0.0 | 0.0 | 0.07 | 0.37 | 0.37 | 85 | 1009.0 |
| 20260509192401 | 53 | 163 | 0.0 | 0.0 | 0.07 | 0.36 | 0.36 | 85 | 1009.1 |
| 20260509190342 | 53 | 216 | 0.0 | 0.0 | 0.04 | 0.33 | 0.33 | 84 | 1009.0 |
| 20260509185351 | 53 | 168 | 0.0 | 0.0 | 0.05 | 0.33 | 0.33 | 83 | 1009.0 |
| 20260509184349 | 53 | 128 | 0.0 | 0.0 | 0.03 | 0.31 | 0.31 | 83 | 1009.0 |
| 20260509182353 | 53 | 180 | 0.0 | 0.0 | 0.05 | 0.29 | 0.29 | 83 | 1009.1 |
| 20260509175400 | 53 | 172 | 0.0 | 0.0 | 0.11 | 0.29 | 0.28 | 83 | 1009.0 |
| 20260509173355 | 53 | 182 | 0.0 | 0.0 | 0.11 | 0.29 | 0.27 | 83 | 1009.0 |
| 20260509172329 | 53 | 165 | 0.0 | 0.0 | 0.08 | 0.27 | 0.24 | 83 | 1009.1 |
| 20260509170346 | 53 | 155 | 0.0 | 0.0 | 0.04 | 0.24 | 0.19 | 83 | 1009.0 |
| 20260509165352 | 53 | 155 | 0.0 | 0.0 | 0.02 | 0.22 | 0.17 | 83 | 1009.1 |
| 20260509164342 | 53 | 155 | 0.0 | 0.0 | 0.02 | 0.22 | 0.17 | 83 | 1009.1 |
| 20260509163346 | 53 | 155 | 0.0 | 0.0 | 0.02 | 0.21 | 0.16 | 83 | 1009.2 |
| 20260509162346 | 52 | 155 | 0.0 | 0.0 | 0.02 | 0.21 | 0.16 | 84 | 1009.2 |
| 20260509161350 | 52 | 155 | 0.0 | 0.0 | 0.03 | 0.21 | 0.16 | 84 | 1009.3 |
| 20260509160354 | 52 | 161 | 0.0 | 0.0 | 0.02 | 0.20 | 0.15 | 83 | 1009.3 |
| 20260509155347 | 52 | 161 | 0.0 | 0.0 | 0.02 | 0.20 | 0.15 | 84 | 1009.4 |
| 20260509154334 | 51 | 161 | 0.0 | 0.0 | 0.03 | 0.20 | 0.15 | 84 | 1009.5 |
| 20260509153327 | 52 | 161 | 0.0 | 0.0 | 0.03 | 0.19 | 0.15 | 84 | 1009.8 |
| 20260509152322 | 51 | 161 | 0.0 | 0.0 | 0.03 | 0.19 | 0.14 | 84 | 1010.0 |
| 20260509151314 | 51 | 161 | 0.0 | 0.0 | 0.03 | 0.18 | 0.13 | 84 | 1009.9 |
| 20260509150323 | 51 | 161 | 0.0 | 0.0 | 0.04 | 0.18 | 0.13 | 84 | 1009.9 |
| 20260509145321 | 51 | 161 | 0.0 | 0.0 | 0.04 | 0.18 | 0.13 | 84 | 1009.9 |
| 20260509144336 | 51 | 161 | 0.0 | 0.0 | 0.04 | 0.17 | 0.12 | 84 | 1009.8 |
| 20260509143333 | 51 | 161 | 0.0 | 0.0 | 0.04 | 0.16 | 0.11 | 84 | 1009.8 |
| 20260509142307 | 51 | 161 | 0.0 | 0.0 | 0.04 | 0.16 | 0.11 | 84 | 1009.8 |
| 20260509141251 | 51 | 161 | 0.0 | 0.0 | 0.04 | 0.15 | 0.10 | 84 | 1009.7 |
| 20260509140242 | 51 | 161 | 0.0 | 0.0 | 0.03 | 0.14 | 0.09 | 84 | 1009.7 |
| 20260509134257 | 51 | 161 | 0.0 | 0.0 | 0.02 | 0.13 | 0.08 | 84 | 1009.5 |
| 20260509133306 | 50 | 161 | 0.0 | 0.0 | 0.01 | 0.12 | 0.07 | 84 | 1009.6 |
| 20260509132250 | 50 | 161 | 0.0 | 0.0 | 0.01 | 0.12 | 0.07 | 84 | 1009.5 |
| 20260509125311 | 50 | 161 | 0.0 | 0.0 | 0.00 | 0.11 | 0.06 | 84 | 1009.5 |
| 20260509124301 | 49 | 161 | 0.0 | 0.0 | 0.00 | 0.11 | 0.06 | 84 | 1009.5 |
| 20260509122325 | 49 | 161 | 0.0 | 0.0 | 0.00 | 0.11 | 0.06 | 84 | 1009.7 |
| 20260509114242 | 48 | 161 | 0.0 | 0.0 | 0.00 | 0.11 | 0.06 | 84 | 1009.8 |
| 20260509113253 | 48 | 161 | 0.0 | 0.0 | 0.00 | 0.11 | 0.06 | 84 | 1009.7 |
| 20260509111311 | 48 | 161 | 0.0 | 0.0 | 0.01 | 0.11 | 0.06 | 84 | 1009.8 |
| 20260509110256 | 47 | 161 | 0.0 | 0.0 | 0.01 | 0.11 | 0.06 | 84 | 1009.9 |
| 20260509105311 | 47 | 161 | 0.0 | 0.0 | 0.01 | 0.11 | 0.06 | 85 | 1010.2 |
| 20260509104259 | 47 | 161 | 0.0 | 0.0 | 0.01 | 0.11 | 0.06 | 85 | 1010.0 |
| 20260509103309 | 47 | 161 | 0.0 | 0.0 | 0.01 | 0.11 | 0.06 | 84 | 1010.0 |
| 20260509102320 | 47 | 161 | 0.0 | 0.0 | 0.01 | 0.11 | 0.06 | 85 | 1009.9 |
| 20260509100257 | 47 | 161 | 0.0 | 0.0 | 0.00 | 0.10 | 0.05 | 85 | 1010.0 |
| 20260509095237 | 47 | 161 | 0.0 | 0.0 | 0.00 | 0.10 | 0.05 | 85 | 1010.0 |
| 20260509094239 | 47 | 161 | 0.0 | 0.0 | 0.00 | 0.10 | 0.05 | 85 | 1010.0 |
| 20260509091233 | 47 | 161 | 0.0 | 0.0 | 0.00 | 0.10 | 0.05 | 85 | 1010.5 |
| 20260509090213 | 47 | 161 | 0.0 | 0.0 | 0.01 | 0.10 | 0.05 | 85 | 1010.6 |
| 20260509085158 | 47 | 161 | 0.0 | 0.0 | 0.01 | 0.10 | 0.05 | 85 | 1010.6 |
| 20260509084200 | 47 | 161 | 0.0 | 0.0 | 0.02 | 0.10 | 0.05 | 85 | 1010.5 |
| 20260509083206 | 47 | 161 | 0.0 | 0.0 | 0.02 | 0.10 | 0.05 | 85 | 1010.4 |
| 20260509082204 | 48 | 161 | 0.0 | 0.0 | 0.02 | 0.10 | 0.05 | 85 | 1010.3 |
| 20260509081150 | 48 | 161 | 0.0 | 0.0 | 0.02 | 0.10 | 0.05 | 85 | 1010.4 |
| 20260509075212 | 47 | 161 | 0.0 | 0.0 | 0.02 | 0.09 | 0.04 | 85 | 1010.6 |
| 20260509073228 | 47 | 161 | 0.0 | 0.0 | 0.02 | 0.08 | 0.03 | 86 | 1010.6 |
| 20260509072212 | 47 | 161 | 0.0 | 0.0 | 0.02 | 0.08 | 0.03 | 86 | 1010.8 |
| 20260509071208 | 47 | 161 | 0.0 | 0.0 | 0.03 | 0.08 | 0.03 | 86 | 1011.0 |
| 20260509070153 | 47 | 161 | 0.0 | 0.0 | 0.02 | 0.07 | 0.02 | 86 | 1011.3 |
| 20260509065157 | 47 | 161 | 0.0 | 0.0 | 0.02 | 0.07 | 0.02 | 86 | 1011.5 |
| 20260509064158 | 47 | 161 | 0.0 | 0.0 | 0.01 | 0.06 | 0.01 | 87 | 1011.4 |
| 20260509063206 | 47 | 161 | 0.0 | 0.0 | 0.01 | 0.06 | 0.01 | 87 | 1011.4 |
| 20260509062149 | 47 | 161 | 0.0 | 0.0 | 0.01 | 0.06 | 0.01 | 87 | 1010.9 |
| 20260509053156 | 47 | 161 | 0.0 | 0.0 | 0.00 | 0.08 | 0.00 | 87 | 1010.8 |
| 20260509052203 | 47 | 161 | 0.0 | 0.0 | 0.00 | 0.09 | 0.00 | 87 | 1010.9 |
| 20260509051209 | 47 | 161 | 0.0 | 0.0 | 0.00 | 0.10 | 0.00 | 87 | 1011.0 |
| 20260509050226 | 47 | 161 | 0.0 | 0.0 | 0.00 | 0.12 | 0.00 | 87 | 1011.0 |
| 20260509045222 | 47 | 161 | 0.0 | 0.0 | 0.00 | 0.13 | 0.00 | 87 | 1011.1 |
| 20260509044200 | 47 | 161 | 0.0 | 0.0 | 0.00 | 0.14 | 0.00 | 87 | 1011.2 |
| 20260509043159 | 47 | 161 | 0.0 | 0.0 | 0.00 | 0.16 | 0.00 | 87 | 1011.2 |
| 20260509042206 | 47 | 161 | 0.0 | 0.0 | 0.00 | 0.17 | 0.16 | 85 | 1011.1 |
| 20260509041209 | 47 | 161 | 0.0 | 0.0 | 0.00 | 0.17 | 0.16 | 85 | 1011.3 |
| 20260509035212 | 48 | 161 | 0.0 | 0.0 | 0.00 | 0.17 | 0.16 | 84 | 1011.1 |
| 20260509032145 | 49 | 161 | 0.0 | 0.0 | 0.00 | 0.17 | 0.16 | 83 | 1011.0 |
| 20260509031104 | 49 | 161 | 0.0 | 0.0 | 0.00 | 0.17 | 0.16 | 83 | 1011.0 |
| 20260509030051 | 50 | 161 | 0.0 | 0.0 | 0.00 | 0.17 | 0.16 | 82 | 1011.1 |
| 20260509024128 | 50 | 161 | 0.0 | 0.0 | 0.00 | 0.17 | 0.16 | 82 | 1011.2 |
| 20260509023120 | 51 | 161 | 0.0 | 0.0 | 0.00 | 0.17 | 0.16 | 82 | 1011.1 |
| 20260509022101 | 51 | 161 | 0.0 | 0.0 | 0.00 | 0.17 | 0.16 | 82 | 1011.0 |
| 20260509014105 | 51 | 161 | 0.0 | 0.0 | 0.00 | 0.17 | 0.16 | 79 | 1010.6 |
| 20260509012126 | 51 | 161 | 0.0 | 0.0 | 0.00 | 0.17 | 0.16 | 78 | 1010.4 |
| 20260509010141 | 52 | 161 | 0.0 | 0.0 | 0.00 | 0.17 | 0.16 | 76 | 1010.2 |
| 20260509005059 | 52 | 161 | 0.0 | 0.0 | 0.00 | 0.17 | 0.16 | 76 | 1010.3 |
| 20260509004031 | 52 | 161 | 0.0 | 0.0 | 0.00 | 0.17 | 0.16 | 75 | 1010.4 |
| 20260509003036 | 52 | 161 | 0.0 | 0.0 | 0.00 | 0.17 | 0.16 | 74 | 1010.3 |
| 20260509001041 | 53 | 161 | 0.0 | 0.0 | 0.00 | 0.17 | 0.16 | 73 | 1010.1 |
| 20260509000020 | 53 | 161 | 0.0 | 0.0 | 0.00 | 0.17 | 0.16 | 73 | 1009.8 |
| 20260508234032 | 53 | 161 | 0.0 | 0.0 | 0.00 | 0.17 | 0.16 | 72 | 1009.9 |
| 20260508232051 | 53 | 161 | 0.0 | 0.0 | 0.00 | 0.17 | 0.16 | 74 | 1009.8 |
| 20260508231102 | 53 | 161 | 0.0 | 0.0 | 0.00 | 0.17 | 0.16 | 73 | 1009.9 |
| 20260508230112 | 53 | 148 | 0.0 | 0.0 | 0.00 | 0.17 | 0.16 | 74 | 1010.1 |
| 20260508225107 | 53 | 290 | 0.0 | 0.0 | 0.00 | 0.17 | 0.16 | 74 | 1010.0 |